sensor_id;sensor_type;location;lat;lon;timestamp;pressure;altitude;pressure_sealevel;temperature;humidity
36380;BME280;22411;53.016;18.632;2023-05-01T00:04:06;101369.78;;;5.09;100.00
36380;BME280;22411;53.016;18.632;2023-05-01T00:06:53;101374.88;;;5.10;100.00
36380;BME280;22411;53.016;18.632;2023-05-01T00:09:37;101371.53;;;5.08;100.00
36380;BME280;22411;53.016;18.632;2023-05-01T00:12:32;101380.97;;;5.08;100.00
36380;BME280;22411;53.016;18.632;2023-05-01T00:15:35;101376.66;;;5.08;100.00
36380;BME280;22411;53.016;18.632;2023-05-01T00:18:25;101379.22;;;5.08;100.00
36380;BME280;22411;53.016;18.632;2023-05-01T00:21:32;101378.47;;;5.05;100.00
36380;BME280;22411;53.016;18.632;2023-05-01T00:24:42;101378.63;;;5.00;100.00
36380;BME280;22411;53.016;18.632;2023-05-01T00:34:31;101372.97;;;4.89;100.00
36380;BME280;22411;53.016;18.632;2023-05-01T00:37:19;101371.25;;;4.89;100.00
36380;BME280;22411;53.016;18.632;2023-05-01T00:40:05;101383.31;;;4.87;100.00
36380;BME280;22411;53.016;18.632;2023-05-01T00:43:00;101378.31;;;4.83;100.00
36380;BME280;22411;53.016;18.632;2023-05-01T00:45:50;101371.56;;;4.80;100.00
36380;BME280;22411;53.016;18.632;2023-05-01T00:48:34;101367.25;;;4.81;100.00
36380;BME280;22411;53.016;18.632;2023-05-01T00:51:42;101367.25;;;4.81;100.00
36380;BME280;22411;53.016;18.632;2023-05-01T00:54:55;101362.94;;;4.81;100.00
36380;BME280;22411;53.016;18.632;2023-05-01T00:58:09;101363.94;;;4.77;100.00
36380;BME280;22411;53.016;18.632;2023-05-01T01:01:05;101356.28;;;4.76;100.00
36380;BME280;22411;53.016;18.632;2023-05-01T01:03:52;101345.16;;;4.75;100.00
36380;BME280;22411;53.016;18.632;2023-05-01T01:10:22;101357.44;;;4.65;100.00
36380;BME280;22411;53.016;18.632;2023-05-01T01:14:14;101351.66;;;4.59;100.00
36380;BME280;22411;53.016;18.632;2023-05-01T01:34:25;101361.81;;;4.34;100.00
36380;BME280;22411;53.016;18.632;2023-05-01T01:37:28;101358.59;;;4.27;100.00
36380;BME280;22411;53.016;18.632;2023-05-01T01:40:28;101361.16;;;4.26;100.00
36380;BME280;22411;53.016;18.632;2023-05-01T01:43:17;101362.84;;;4.27;100.00
36380;BME280;22411;53.016;18.632;2023-05-01T01:46:34;101356.97;;;4.23;100.00
36380;BME280;22411;53.016;18.632;2023-05-01T01:49:25;101346.91;;;4.15;100.00
36380;BME280;22411;53.016;18.632;2023-05-01T01:52:23;101353.16;;;4.07;100.00
36380;BME280;22411;53.016;18.632;2023-05-01T01:55:11;101342.19;;;4.02;100.00
36380;BME280;22411;53.016;18.632;2023-05-01T01:58:20;101339.69;;;3.99;100.00
36380;BME280;22411;53.016;18.632;2023-05-01T02:01:35;101335.50;;;3.96;100.00
36380;BME280;22411;53.016;18.632;2023-05-01T02:04:22;101328.81;;;3.90;100.00
36380;BME280;22411;53.016;18.632;2023-05-01T02:07:28;101330.69;;;3.84;100.00
36380;BME280;22411;53.016;18.632;2023-05-01T02:10:23;101325.69;;;3.79;100.00
36380;BME280;22411;53.016;18.632;2023-05-01T02:13:09;101315.59;;;3.75;100.00
36380;BME280;22411;53.016;18.632;2023-05-01T02:15:57;101315.72;;;3.70;100.00
36380;BME280;22411;53.016;18.632;2023-05-01T02:18:58;101324.31;;;3.67;100.00
36380;BME280;22411;53.016;18.632;2023-05-01T02:22:09;101308.19;;;3.64;100.00
36380;BME280;22411;53.016;18.632;2023-05-01T02:25:25;101311.81;;;3.55;100.00
36380;BME280;22411;53.016;18.632;2023-05-01T02:28:40;101306.84;;;3.49;100.00
36380;BME280;22411;53.016;18.632;2023-05-01T02:31:24;101298.63;;;3.38;100.00
36380;BME280;22411;53.016;18.632;2023-05-01T02:34:35;101309.00;;;3.32;100.00
36380;BME280;22411;53.016;18.632;2023-05-01T02:37:19;101298.84;;;3.29;100.00
36380;BME280;22411;53.016;18.632;2023-05-01T02:40:20;101298.19;;;3.21;100.00
36380;BME280;22411;53.016;18.632;2023-05-01T02:43:08;101301.56;;;3.23;100.00
36380;BME280;22411;53.016;18.632;2023-05-01T02:45:57;101300.75;;;3.21;100.00
36380;BME280;22411;53.016;18.632;2023-05-01T02:48:52;101297.44;;;3.17;100.00
36380;BME280;22411;53.016;18.632;2023-05-01T02:51:40;101293.16;;;3.18;100.00
36380;BME280;22411;53.016;18.632;2023-05-01T02:54:46;101292.28;;;3.19;100.00
36380;BME280;22411;53.016;18.632;2023-05-01T02:57:34;101289.78;;;3.15;100.00
36380;BME280;22411;53.016;18.632;2023-05-01T03:00:21;101283.75;;;3.18;100.00
36380;BME280;22411;53.016;18.632;2023-05-01T03:03:06;101286.25;;;3.20;100.00
36380;BME280;22411;53.016;18.632;2023-05-01T03:06:07;101292.09;;;3.25;100.00
36380;BME280;22411;53.016;18.632;2023-05-01T03:08:54;101282.75;;;3.24;100.00
36380;BME280;22411;53.016;18.632;2023-05-01T03:15:04;101285.47;;;3.16;100.00
36380;BME280;22411;53.016;18.632;2023-05-01T03:18:00;101277.97;;;3.10;100.00
36380;BME280;22411;53.016;18.632;2023-05-01T03:21:00;101283.91;;;3.10;100.00
36380;BME280;22411;53.016;18.632;2023-05-01T03:27:45;101274.44;;;3.14;100.00
36380;BME280;22411;53.016;18.632;2023-05-01T03:30:32;101277.94;;;3.11;100.00
36380;BME280;22411;53.016;18.632;2023-05-01T03:33:21;101272.84;;;3.10;100.00
36380;BME280;22411;53.016;18.632;2023-05-01T03:36:24;101271.84;;;3.15;100.00
36380;BME280;22411;53.016;18.632;2023-05-01T03:39:11;101276.00;;;3.20;100.00
36380;BME280;22411;53.016;18.632;2023-05-01T03:42:26;101276.91;;;3.19;100.00
36380;BME280;22411;53.016;18.632;2023-05-01T03:45:19;101278.66;;;3.17;100.00
36380;BME280;22411;53.016;18.632;2023-05-01T03:48:10;101277.75;;;3.19;100.00
36380;BME280;22411;53.016;18.632;2023-05-01T03:51:34;101274.16;;;3.25;100.00
36380;BME280;22411;53.016;18.632;2023-05-01T03:54:28;101281.75;;;3.29;100.00
36380;BME280;22411;53.016;18.632;2023-05-01T03:57:16;101294.50;;;3.32;100.00
36380;BME280;22411;53.016;18.632;2023-05-01T04:00:03;101283.38;;;3.32;100.00
36380;BME280;22411;53.016;18.632;2023-05-01T04:03:08;101286.09;;;3.27;100.00
36380;BME280;22411;53.016;18.632;2023-05-01T04:06:09;101289.50;;;3.26;100.00
36380;BME280;22411;53.016;18.632;2023-05-01T04:09:12;101281.69;;;3.31;100.00
36380;BME280;22411;53.016;18.632;2023-05-01T04:12:27;101285.91;;;3.33;100.00
36380;BME280;22411;53.016;18.632;2023-05-01T04:15:42;101286.59;;;3.40;100.00
36380;BME280;22411;53.016;18.632;2023-05-01T04:18:46;101290.78;;;3.42;100.00
36380;BME280;22411;53.016;18.632;2023-05-01T04:21:54;101287.34;;;3.44;100.00
36380;BME280;22411;53.016;18.632;2023-05-01T04:28:09;101289.63;;;3.54;100.00
36380;BME280;22411;53.016;18.632;2023-05-01T04:30:54;101291.97;;;3.62;100.00
36380;BME280;22411;53.016;18.632;2023-05-01T04:33:55;101289.22;;;3.70;100.00
36380;BME280;22411;53.016;18.632;2023-05-01T04:37:04;101291.56;;;3.77;100.00
36380;BME280;22411;53.016;18.632;2023-05-01T04:39:54;101293.16;;;3.81;100.00
36380;BME280;22411;53.016;18.632;2023-05-01T04:42:54;101288.78;;;3.85;100.00
36380;BME280;22411;53.016;18.632;2023-05-01T04:49:10;101299.19;;;3.80;100.00
36380;BME280;22411;53.016;18.632;2023-05-01T04:51:57;101290.38;;;3.89;100.00
36380;BME280;22411;53.016;18.632;2023-05-01T04:54:55;101288.50;;;3.96;100.00
36380;BME280;22411;53.016;18.632;2023-05-01T04:57:54;101291.66;;;4.04;100.00
36380;BME280;22411;53.016;18.632;2023-05-01T05:00:50;101292.44;;;4.07;100.00
36380;BME280;22411;53.016;18.632;2023-05-01T05:03:52;101296.72;;;4.07;100.00
36380;BME280;22411;53.016;18.632;2023-05-01T05:06:44;101295.84;;;4.08;100.00
36380;BME280;22411;53.016;18.632;2023-05-01T05:09:40;101289.88;;;4.07;100.00
36380;BME280;22411;53.016;18.632;2023-05-01T05:12:27;101287.31;;;4.06;100.00
36380;BME280;22411;53.016;18.632;2023-05-01T05:18:44;101282.91;;;4.11;100.00
36380;BME280;22411;53.016;18.632;2023-05-01T05:21:28;101286.34;;;4.10;100.00
36380;BME280;22411;53.016;18.632;2023-05-01T05:24:42;101283.78;;;4.11;100.00
36380;BME280;22411;53.016;18.632;2023-05-01T05:27:36;101281.84;;;4.18;100.00
36380;BME280;22411;53.016;18.632;2023-05-01T05:34:22;101282.09;;;4.38;100.00
36380;BME280;22411;53.016;18.632;2023-05-01T05:40:55;101276.31;;;4.60;100.00
36380;BME280;22411;53.016;18.632;2023-05-01T05:43:49;101285.47;;;4.67;100.00
36380;BME280;22411;53.016;18.632;2023-05-01T05:49:51;101271.03;;;4.91;100.00
36380;BME280;22411;53.016;18.632;2023-05-01T05:52:35;101279.22;;;5.02;100.00
36380;BME280;22411;53.016;18.632;2023-05-01T05:55:20;101276.22;;;5.14;100.00
36380;BME280;22411;53.016;18.632;2023-05-01T05:58:09;101283.59;;;5.25;100.00
36380;BME280;22411;53.016;18.632;2023-05-01T06:01:05;101278.81;;;5.39;100.00
36380;BME280;22411;53.016;18.632;2023-05-01T06:04:18;101279.97;;;5.56;100.00
36380;BME280;22411;53.016;18.632;2023-05-01T06:07:06;101286.16;;;5.73;100.00
36380;BME280;22411;53.016;18.632;2023-05-01T06:10:00;101277.91;;;5.89;100.00
36380;BME280;22411;53.016;18.632;2023-05-01T06:16:28;101290.03;;;6.32;100.00
36380;BME280;22411;53.016;18.632;2023-05-01T06:22:47;101294.47;;;6.72;100.00
36380;BME280;22411;53.016;18.632;2023-05-01T06:25:52;101287.81;;;6.89;100.00
36380;BME280;22411;53.016;18.632;2023-05-01T06:28:36;101292.22;;;7.07;100.00
36380;BME280;22411;53.016;18.632;2023-05-01T06:31:43;101292.81;;;7.34;100.00
36380;BME280;22411;53.016;18.632;2023-05-01T06:34:28;101292.09;;;7.51;100.00
36380;BME280;22411;53.016;18.632;2023-05-01T06:37:22;101287.38;;;7.60;100.00
36380;BME280;22411;53.016;18.632;2023-05-01T06:40:26;101291.91;;;7.74;100.00
36380;BME280;22411;53.016;18.632;2023-05-01T06:43:18;101282.53;;;7.92;100.00
36380;BME280;22411;53.016;18.632;2023-05-01T06:46:03;101279.50;;;8.01;100.00
36380;BME280;22411;53.016;18.632;2023-05-01T06:48:52;101277.97;;;8.16;100.00
36380;BME280;22411;53.016;18.632;2023-05-01T06:52:19;101278.09;;;8.32;100.00
36380;BME280;22411;53.016;18.632;2023-05-01T06:55:00;101273.03;;;8.49;100.00
36380;BME280;22411;53.016;18.632;2023-05-01T06:58:05;101273.19;;;8.63;100.00
36380;BME280;22411;53.016;18.632;2023-05-01T07:00:49;101280.41;;;8.74;100.00
36380;BME280;22411;53.016;18.632;2023-05-01T07:03:47;101276.13;;;8.92;100.00
36380;BME280;22411;53.016;18.632;2023-05-01T07:09:59;101269.19;;;9.10;100.00
36380;BME280;22411;53.016;18.632;2023-05-01T07:12:43;101266.81;;;9.23;100.00
36380;BME280;22411;53.016;18.632;2023-05-01T07:15:34;101268.09;;;9.31;100.00
36380;BME280;22411;53.016;18.632;2023-05-01T07:18:59;101260.00;;;9.55;100.00
36380;BME280;22411;53.016;18.632;2023-05-01T07:22:03;101265.28;;;9.69;100.00
36380;BME280;22411;53.016;18.632;2023-05-01T07:24:48;101272.31;;;9.83;100.00
36380;BME280;22411;53.016;18.632;2023-05-01T07:27:51;101260.72;;;9.90;100.00
36380;BME280;22411;53.016;18.632;2023-05-01T07:30:45;101258.66;;;9.97;100.00
36380;BME280;22411;53.016;18.632;2023-05-01T07:33:29;101261.56;;;10.06;100.00
36380;BME280;22411;53.016;18.632;2023-05-01T07:36:21;101259.06;;;10.20;100.00
36380;BME280;22411;53.016;18.632;2023-05-01T07:39:28;101256.34;;;10.39;100.00
36380;BME280;22411;53.016;18.632;2023-05-01T07:45:19;101263.91;;;10.58;100.00
36380;BME280;22411;53.016;18.632;2023-05-01T07:48:09;101262.91;;;10.61;100.00
36380;BME280;22411;53.016;18.632;2023-05-01T07:50:56;101260.69;;;10.69;100.00
36380;BME280;22411;53.016;18.632;2023-05-01T07:54:00;101257.75;;;10.75;100.00
36380;BME280;22411;53.016;18.632;2023-05-01T07:57:28;101254.03;;;10.95;100.00
36380;BME280;22411;53.016;18.632;2023-05-01T08:00:24;101248.09;;;11.07;100.00
36380;BME280;22411;53.016;18.632;2023-05-01T08:03:30;101244.34;;;11.27;100.00
36380;BME280;22411;53.016;18.632;2023-05-01T08:06:19;101252.03;;;11.43;99.84
36380;BME280;22411;53.016;18.632;2023-05-01T08:09:16;101250.47;;;11.55;100.00
36380;BME280;22411;53.016;18.632;2023-05-01T08:12:20;101248.53;;;11.72;100.00
36380;BME280;22411;53.016;18.632;2023-05-01T08:15:48;101244.63;;;11.94;100.00
36380;BME280;22411;53.016;18.632;2023-05-01T08:18:45;101247.50;;;12.03;96.45
36380;BME280;22411;53.016;18.632;2023-05-01T08:22:11;101247.91;;;12.24;95.37
36380;BME280;22411;53.016;18.632;2023-05-01T08:25:05;101246.97;;;12.52;92.53
36380;BME280;22411;53.016;18.632;2023-05-01T08:31:40;101241.94;;;12.89;92.06
36380;BME280;22411;53.016;18.632;2023-05-01T08:34:45;101252.47;;;13.00;86.33
36380;BME280;22411;53.016;18.632;2023-05-01T08:40:48;101238.44;;;13.67;82.73
36380;BME280;22411;53.016;18.632;2023-05-01T08:43:50;101237.47;;;13.80;67.91
36380;BME280;22411;53.016;18.632;2023-05-01T08:49:51;101236.50;;;14.18;56.95
36380;BME280;22411;53.016;18.632;2023-05-01T08:53:02;101236.09;;;14.24;58.04
36380;BME280;22411;53.016;18.632;2023-05-01T09:02:14;101230.41;;;14.30;53.58
36380;BME280;22411;53.016;18.632;2023-05-01T09:05:19;101220.03;;;14.42;50.80
36380;BME280;22411;53.016;18.632;2023-05-01T09:15:07;101222.41;;;15.15;47.42
36380;BME280;22411;53.016;18.632;2023-05-01T09:18:07;101229.28;;;15.50;42.89
36380;BME280;22411;53.016;18.632;2023-05-01T09:20:53;101213.88;;;15.69;42.53
36380;BME280;22411;53.016;18.632;2023-05-01T09:23:38;101209.22;;;15.95;43.52
36380;BME280;22411;53.016;18.632;2023-05-01T09:26:23;101209.75;;;16.42;41.22
36380;BME280;22411;53.016;18.632;2023-05-01T09:29:08;101207.16;;;16.63;37.62
36380;BME280;22411;53.016;18.632;2023-05-01T09:31:53;101203.81;;;16.19;38.23
36380;BME280;22411;53.016;18.632;2023-05-01T09:34:44;101198.59;;;16.40;42.08
36380;BME280;22411;53.016;18.632;2023-05-01T09:37:30;101195.78;;;16.32;44.31
36380;BME280;22411;53.016;18.632;2023-05-01T09:40:15;101192.66;;;16.38;42.90
36380;BME280;22411;53.016;18.632;2023-05-01T09:42:59;101183.81;;;16.92;41.81
36380;BME280;22411;53.016;18.632;2023-05-01T09:46:03;101177.84;;;17.41;39.96
36380;BME280;22411;53.016;18.632;2023-05-01T09:49:02;101176.34;;;17.48;38.69
36380;BME280;22411;53.016;18.632;2023-05-01T09:51:47;101171.53;;;17.54;39.12
36380;BME280;22411;53.016;18.632;2023-05-01T09:54:32;101173.03;;;17.46;37.23
36380;BME280;22411;53.016;18.632;2023-05-01T09:57:16;101165.56;;;18.01;38.11
36380;BME280;22411;53.016;18.632;2023-05-01T10:00:02;101165.84;;;18.57;37.89
36380;BME280;22411;53.016;18.632;2023-05-01T10:02:51;101167.88;;;18.82;35.99
36380;BME280;22411;53.016;18.632;2023-05-01T10:05:42;101165.53;;;18.89;35.74
36380;BME280;22411;53.016;18.632;2023-05-01T10:08:53;101158.75;;;18.86;34.77
36380;BME280;22411;53.016;18.632;2023-05-01T10:11:49;101162.09;;;18.49;33.38
36380;BME280;22411;53.016;18.632;2023-05-01T10:14:51;101159.94;;;18.35;33.40
36380;BME280;22411;53.016;18.632;2023-05-01T10:17:36;101150.84;;;18.96;33.32
36380;BME280;22411;53.016;18.632;2023-05-01T10:20:21;101145.22;;;18.71;28.95
36380;BME280;22411;53.016;18.632;2023-05-01T10:23:06;101145.28;;;17.94;31.69
36380;BME280;22411;53.016;18.632;2023-05-01T10:25:52;101144.88;;;18.18;32.58
36380;BME280;22411;53.016;18.632;2023-05-01T10:28:39;101137.66;;;18.49;31.38
36380;BME280;22411;53.016;18.632;2023-05-01T10:31:24;101140.13;;;18.79;29.91
36380;BME280;22411;53.016;18.632;2023-05-01T10:34:17;101142.78;;;19.07;30.24
36380;BME280;22411;53.016;18.632;2023-05-01T10:37:25;101135.59;;;19.64;31.86
36380;BME280;22411;53.016;18.632;2023-05-01T10:40:44;101131.22;;;20.08;30.21
36380;BME280;22411;53.016;18.632;2023-05-01T10:43:29;101123.19;;;19.92;34.10
36380;BME280;22411;53.016;18.632;2023-05-01T10:49:04;101125.47;;;20.05;32.37
36380;BME280;22411;53.016;18.632;2023-05-01T10:51:58;101125.53;;;19.95;30.86
36380;BME280;22411;53.016;18.632;2023-05-01T10:54:42;101128.84;;;19.79;30.67
36380;BME280;22411;53.016;18.632;2023-05-01T10:57:42;101126.16;;;19.89;32.61
36380;BME280;22411;53.016;18.632;2023-05-01T11:00:27;101130.50;;;20.16;32.32
36380;BME280;22411;53.016;18.632;2023-05-01T11:06:05;101114.00;;;20.14;30.87
36380;BME280;22411;53.016;18.632;2023-05-01T11:08:49;101106.81;;;19.63;32.90
36380;BME280;22411;53.016;18.632;2023-05-01T11:14:18;101094.59;;;19.89;33.93
36380;BME280;22411;53.016;18.632;2023-05-01T11:17:02;101094.50;;;20.43;31.61
36380;BME280;22411;53.016;18.632;2023-05-01T11:19:46;101094.25;;;20.10;31.25
36380;BME280;22411;53.016;18.632;2023-05-01T11:22:36;101084.00;;;19.99;33.63
36380;BME280;22411;53.016;18.632;2023-05-01T11:28:05;101084.78;;;21.37;32.22
36380;BME280;22411;53.016;18.632;2023-05-01T11:30:49;101086.69;;;21.27;34.07
36380;BME280;22411;53.016;18.632;2023-05-01T11:33:34;101083.47;;;21.50;33.50
36380;BME280;22411;53.016;18.632;2023-05-01T11:36:19;101077.91;;;21.69;32.42
36380;BME280;22411;53.016;18.632;2023-05-01T11:39:03;101072.31;;;21.13;30.98
36380;BME280;22411;53.016;18.632;2023-05-01T11:41:47;101079.38;;;21.55;31.55
36380;BME280;22411;53.016;18.632;2023-05-01T11:44:31;101070.16;;;21.59;34.06
36380;BME280;22411;53.016;18.632;2023-05-01T11:47:16;101065.69;;;21.52;31.39
36380;BME280;22411;53.016;18.632;2023-05-01T11:50:00;101061.09;;;21.62;31.56
36380;BME280;22411;53.016;18.632;2023-05-01T11:52:49;101068.34;;;21.68;30.76
36380;BME280;22411;53.016;18.632;2023-05-01T11:55:36;101067.56;;;21.17;30.34
36380;BME280;22411;53.016;18.632;2023-05-01T11:58:31;101065.00;;;20.57;30.54
36380;BME280;22411;53.016;18.632;2023-05-01T12:01:19;101056.91;;;20.93;30.29
36380;BME280;22411;53.016;18.632;2023-05-01T12:04:04;101050.69;;;21.36;29.06
36380;BME280;22411;53.016;18.632;2023-05-01T12:06:49;101045.19;;;20.79;31.00
36380;BME280;22411;53.016;18.632;2023-05-01T12:09:34;101035.97;;;20.23;32.52
36380;BME280;22411;53.016;18.632;2023-05-01T12:12:18;101035.44;;;20.71;31.65
36380;BME280;22411;53.016;18.632;2023-05-01T12:15:03;101021.88;;;20.58;33.09
36380;BME280;22411;53.016;18.632;2023-05-01T12:17:47;101025.25;;;19.72;35.53
36380;BME280;22411;53.016;18.632;2023-05-01T12:20:40;101024.31;;;19.99;35.23
36380;BME280;22411;53.016;18.632;2023-05-01T12:23:33;101022.41;;;20.35;33.34
36380;BME280;22411;53.016;18.632;2023-05-01T12:26:18;101008.44;;;20.69;31.81
36380;BME280;22411;53.016;18.632;2023-05-01T12:29:04;101017.75;;;20.89;31.75
36380;BME280;22411;53.016;18.632;2023-05-01T12:31:49;101017.28;;;21.02;31.21
36380;BME280;22411;53.016;18.632;2023-05-01T12:34:33;101002.53;;;21.34;31.47
36380;BME280;22411;53.016;18.632;2023-05-01T12:37:18;101008.19;;;21.80;30.60
36380;BME280;22411;53.016;18.632;2023-05-01T12:40:02;100989.38;;;21.42;31.87
36380;BME280;22411;53.016;18.632;2023-05-01T12:42:54;100994.69;;;20.92;31.68
36380;BME280;22411;53.016;18.632;2023-05-01T12:45:39;100993.81;;;21.50;33.00
36380;BME280;22411;53.016;18.632;2023-05-01T12:48:24;100991.00;;;21.35;32.90
36380;BME280;22411;53.016;18.632;2023-05-01T12:51:17;100994.50;;;21.52;29.58
36380;BME280;22411;53.016;18.632;2023-05-01T12:54:01;100994.06;;;21.06;30.44
36380;BME280;22411;53.016;18.632;2023-05-01T12:56:46;100983.97;;;20.85;32.83
36380;BME280;22411;53.016;18.632;2023-05-01T12:59:30;100968.41;;;20.66;30.41
36380;BME280;22411;53.016;18.632;2023-05-01T13:02:16;100958.97;;;20.89;31.08
36380;BME280;22411;53.016;18.632;2023-05-01T13:05:08;100958.47;;;21.02;33.04
36380;BME280;22411;53.016;18.632;2023-05-01T13:07:52;100959.38;;;21.51;31.45
36380;BME280;22411;53.016;18.632;2023-05-01T13:10:37;100942.41;;;21.78;30.78
36380;BME280;22411;53.016;18.632;2023-05-01T13:13:29;100953.13;;;21.69;28.71
36380;BME280;22411;53.016;18.632;2023-05-01T13:16:15;100948.81;;;21.76;28.26
36380;BME280;22411;53.016;18.632;2023-05-01T13:18:59;100959.47;;;21.99;29.14
36380;BME280;22411;53.016;18.632;2023-05-01T13:21:48;100962.16;;;21.90;29.85
36380;BME280;22411;53.016;18.632;2023-05-01T13:24:36;100944.63;;;22.06;30.55
36380;BME280;22411;53.016;18.632;2023-05-01T13:27:21;100944.38;;;22.48;30.74
36380;BME280;22411;53.016;18.632;2023-05-01T13:30:06;100926.38;;;22.43;31.11
36380;BME280;22411;53.016;18.632;2023-05-01T13:32:51;100914.88;;;22.36;30.75
36380;BME280;22411;53.016;18.632;2023-05-01T13:35:35;100918.69;;;21.62;31.06
36380;BME280;22411;53.016;18.632;2023-05-01T13:38:21;100916.16;;;21.85;32.51
36380;BME280;22411;53.016;18.632;2023-05-01T13:41:21;100918.19;;;22.30;31.42
36380;BME280;22411;53.016;18.632;2023-05-01T13:44:06;100915.34;;;22.71;31.13
36380;BME280;22411;53.016;18.632;2023-05-01T13:46:50;100924.69;;;23.13;28.32
36380;BME280;22411;53.016;18.632;2023-05-01T13:49:40;100919.78;;;22.79;29.14
36380;BME280;22411;53.016;18.632;2023-05-01T13:52:24;100913.66;;;22.78;29.66
36380;BME280;22411;53.016;18.632;2023-05-01T13:55:09;100909.69;;;23.28;29.16
36380;BME280;22411;53.016;18.632;2023-05-01T13:57:53;100910.41;;;23.60;29.64
36380;BME280;22411;53.016;18.632;2023-05-01T14:00:39;100895.38;;;23.22;29.24
36380;BME280;22411;53.016;18.632;2023-05-01T14:03:24;100911.16;;;22.85;29.15
36380;BME280;22411;53.016;18.632;2023-05-01T14:06:12;100892.84;;;22.83;29.01
36380;BME280;22411;53.016;18.632;2023-05-01T14:08:57;100897.63;;;23.11;29.22
36380;BME280;22411;53.016;18.632;2023-05-01T14:11:45;100892.28;;;23.34;28.79
36380;BME280;22411;53.016;18.632;2023-05-01T14:14:31;100895.16;;;22.16;28.61
36380;BME280;22411;53.016;18.632;2023-05-01T14:17:15;100898.88;;;22.30;28.13
36380;BME280;22411;53.016;18.632;2023-05-01T14:20:00;100879.41;;;22.62;27.96
36380;BME280;22411;53.016;18.632;2023-05-01T14:22:47;100870.28;;;23.18;27.83
36380;BME280;22411;53.016;18.632;2023-05-01T14:25:34;100864.41;;;23.08;27.65
36380;BME280;22411;53.016;18.632;2023-05-01T14:28:19;100874.38;;;22.75;27.48
36380;BME280;22411;53.016;18.632;2023-05-01T14:31:03;100870.31;;;22.87;27.75
36380;BME280;22411;53.016;18.632;2023-05-01T14:33:51;100862.97;;;23.06;28.19
36380;BME280;22411;53.016;18.632;2023-05-01T14:36:37;100856.66;;;22.84;27.93
36380;BME280;22411;53.016;18.632;2023-05-01T14:39:21;100862.69;;;22.69;26.74
36380;BME280;22411;53.016;18.632;2023-05-01T14:42:06;100855.28;;;22.42;27.36
36380;BME280;22411;53.016;18.632;2023-05-01T14:44:50;100845.56;;;22.34;27.86
36380;BME280;22411;53.016;18.632;2023-05-01T14:47:34;100845.66;;;22.10;28.48
36380;BME280;22411;53.016;18.632;2023-05-01T14:50:20;100841.44;;;22.63;28.30
36380;BME280;22411;53.016;18.632;2023-05-01T14:53:05;100817.03;;;21.90;29.25
36380;BME280;22411;53.016;18.632;2023-05-01T14:55:50;100835.69;;;21.89;29.90
36380;BME280;22411;53.016;18.632;2023-05-01T14:58:34;100828.97;;;22.17;28.86
36380;BME280;22411;53.016;18.632;2023-05-01T15:01:18;100825.53;;;22.71;29.89
36380;BME280;22411;53.016;18.632;2023-05-01T15:04:05;100816.50;;;22.88;29.18
36380;BME280;22411;53.016;18.632;2023-05-01T15:06:50;100812.56;;;21.99;29.83
36380;BME280;22411;53.016;18.632;2023-05-01T15:09:36;100819.28;;;22.02;30.78
36380;BME280;22411;53.016;18.632;2023-05-01T15:12:20;100822.22;;;22.46;30.27
36380;BME280;22411;53.016;18.632;2023-05-01T15:15:05;100822.34;;;22.99;28.62
36380;BME280;22411;53.016;18.632;2023-05-01T15:17:49;100812.31;;;22.71;29.24
36380;BME280;22411;53.016;18.632;2023-05-01T15:20:34;100809.91;;;22.38;29.61
36380;BME280;22411;53.016;18.632;2023-05-01T15:23:18;100816.94;;;22.46;29.57
36380;BME280;22411;53.016;18.632;2023-05-01T15:26:03;100810.25;;;22.81;29.85
36380;BME280;22411;53.016;18.632;2023-05-01T15:28:47;100810.13;;;23.35;30.25
36380;BME280;22411;53.016;18.632;2023-05-01T15:31:31;100803.56;;;23.16;28.99
36380;BME280;22411;53.016;18.632;2023-05-01T15:34:15;100802.59;;;22.94;29.58
36380;BME280;22411;53.016;18.632;2023-05-01T15:36:59;100790.72;;;22.44;30.42
36380;BME280;22411;53.016;18.632;2023-05-01T15:39:43;100783.56;;;21.83;31.30
36380;BME280;22411;53.016;18.632;2023-05-01T15:42:27;100784.44;;;21.83;31.19
36380;BME280;22411;53.016;18.632;2023-05-01T15:45:11;100785.06;;;21.85;31.13
36380;BME280;22411;53.016;18.632;2023-05-01T15:47:55;100790.66;;;21.90;30.55
36380;BME280;22411;53.016;18.632;2023-05-01T15:50:39;100777.47;;;21.90;32.14
36380;BME280;22411;53.016;18.632;2023-05-01T15:53:26;100775.81;;;21.89;32.25
36380;BME280;22411;53.016;18.632;2023-05-01T15:56:10;100759.31;;;21.87;30.92
36380;BME280;22411;53.016;18.632;2023-05-01T15:58:55;100776.16;;;21.86;30.77
36380;BME280;22411;53.016;18.632;2023-05-01T16:01:39;100781.25;;;22.27;31.17
36380;BME280;22411;53.016;18.632;2023-05-01T16:04:25;100777.25;;;22.00;30.28
36380;BME280;22411;53.016;18.632;2023-05-01T16:07:16;100777.91;;;21.55;32.24
36380;BME280;22411;53.016;18.632;2023-05-01T16:10:01;100767.75;;;21.44;32.25
36380;BME280;22411;53.016;18.632;2023-05-01T16:12:46;100764.56;;;21.56;32.31
36380;BME280;22411;53.016;18.632;2023-05-01T16:15:35;100765.13;;;21.27;33.18
36380;BME280;22411;53.016;18.632;2023-05-01T16:18:22;100766.31;;;20.84;36.12
36380;BME280;22411;53.016;18.632;2023-05-01T16:21:11;100750.84;;;20.56;37.13
36380;BME280;22411;53.016;18.632;2023-05-01T16:23:56;100736.72;;;19.91;40.27
36380;BME280;22411;53.016;18.632;2023-05-01T16:26:40;100746.00;;;19.69;39.60
36380;BME280;22411;53.016;18.632;2023-05-01T16:29:25;100747.38;;;19.55;41.07
36380;BME280;22411;53.016;18.632;2023-05-01T16:32:10;100740.47;;;19.54;40.49
36380;BME280;22411;53.016;18.632;2023-05-01T16:34:54;100729.31;;;19.52;41.73